createdAt,value
2024-02-24T00:00:23.663Z,4.60
2024-02-24T00:03:10.099Z,4.50
2024-02-24T00:05:56.624Z,4.50
2024-02-24T00:08:43.637Z,4.40
2024-02-24T00:11:30.475Z,4.30
2024-02-24T00:14:16.973Z,4.20
2024-02-24T00:17:02.955Z,4.20
2024-02-24T00:19:48.967Z,4.20
2024-02-24T00:22:36.792Z,4.30
2024-02-24T00:25:23.176Z,4.30
2024-02-24T00:28:12.263Z,4.30
2024-02-24T00:30:58.655Z,4.30
2024-02-24T00:33:45.017Z,4.20
2024-02-24T00:36:31.288Z,4.10
2024-02-24T00:39:17.594Z,4.10
2024-02-24T00:42:04.885Z,4.00
2024-02-24T00:44:51.171Z,4.00
2024-02-24T00:47:37.371Z,4.00
2024-02-24T00:50:29.867Z,4.00
2024-02-24T00:53:16.230Z,4.00
2024-02-24T00:56:02.259Z,3.90
2024-02-24T00:58:48.506Z,3.80
2024-02-24T01:01:34.610Z,3.80
2024-02-24T01:04:24.375Z,3.70
2024-02-24T01:07:15.385Z,3.70
2024-02-24T01:10:01.631Z,3.70
2024-02-24T01:12:47.932Z,3.60
2024-02-24T01:15:34.364Z,3.50
2024-02-24T01:18:23.693Z,3.50
2024-02-24T01:21:09.933Z,3.40
2024-02-24T01:23:56.047Z,3.40
2024-02-24T01:26:42.374Z,3.40
2024-02-24T01:29:28.722Z,3.50
2024-02-24T01:32:15.182Z,3.50
2024-02-24T01:35:02.314Z,3.40
2024-02-24T01:37:48.254Z,3.30
2024-02-24T01:40:34.370Z,3.30
2024-02-24T01:43:28.066Z,3.20
2024-02-24T01:46:16.251Z,3.20
2024-02-24T01:49:02.972Z,3.10
2024-02-24T01:51:49.235Z,3.10
2024-02-24T01:54:36.979Z,3.10
2024-02-24T01:57:26.114Z,3.10
2024-02-24T02:00:15.437Z,3.10
2024-02-24T02:03:04.422Z,3.20
2024-02-24T02:05:51.082Z,3.20
2024-02-24T02:08:37.570Z,3.10
2024-02-24T02:11:23.757Z,3.20
2024-02-24T02:14:12.716Z,3.20
2024-02-24T02:16:59.092Z,3.10
2024-02-24T02:19:45.229Z,3.10
2024-02-24T02:22:35.009Z,3.30
2024-02-24T02:25:22.420Z,3.30
2024-02-24T02:28:08.972Z,3.40
2024-02-24T02:30:56.503Z,3.40
2024-02-24T02:33:43.333Z,3.50
2024-02-24T02:36:29.543Z,3.50
2024-02-24T02:39:15.593Z,3.50
2024-02-24T02:42:02.111Z,3.50
2024-02-24T02:44:48.328Z,3.40
2024-02-24T02:47:34.705Z,3.40
2024-02-24T02:50:21.947Z,3.30
2024-02-24T02:53:08.259Z,3.20
2024-02-24T02:55:54.335Z,3.20
2024-02-24T02:58:40.367Z,3.20
2024-02-24T03:01:26.499Z,3.20
2024-02-24T03:04:12.461Z,3.10
2024-02-24T03:06:58.760Z,3.00
2024-02-24T03:09:48.733Z,2.80
2024-02-24T03:12:35.173Z,2.60
2024-02-24T03:15:21.681Z,2.60
2024-02-24T03:18:08.017Z,2.60
2024-02-24T03:20:54.450Z,2.50
2024-02-24T03:23:40.448Z,2.50
2024-02-24T03:26:26.677Z,2.40
2024-02-24T03:29:12.748Z,2.40
2024-02-24T03:31:58.886Z,2.40
2024-02-24T03:34:45.099Z,2.40
2024-02-24T03:37:31.142Z,2.40
2024-02-24T03:40:17.365Z,2.30
2024-02-24T03:43:03.474Z,2.30
2024-02-24T03:45:50.257Z,2.30
2024-02-24T03:48:36.860Z,2.30
2024-02-24T03:51:23.095Z,2.30
2024-02-24T03:54:11.760Z,2.20
2024-02-24T03:56:57.799Z,2.20
2024-02-24T03:59:43.819Z,2.20
2024-02-24T04:02:30.280Z,2.10
2024-02-24T04:05:16.521Z,1.90
2024-02-24T04:08:02.741Z,1.90
2024-02-24T04:10:49.151Z,2.00
2024-02-24T04:13:35.521Z,2.20
2024-02-24T04:16:21.839Z,2.30
2024-02-24T04:19:08.186Z,2.30
2024-02-24T04:21:54.799Z,2.40
2024-02-24T04:24:41.718Z,2.20
2024-02-24T04:27:27.709Z,2.10
2024-02-24T04:30:13.993Z,2.00
2024-02-24T04:33:00.709Z,1.90
2024-02-24T04:35:47.210Z,2.00
2024-02-24T04:38:33.419Z,2.00
2024-02-24T04:41:19.413Z,2.10
2024-02-24T04:44:05.704Z,2.00
2024-02-24T04:46:51.784Z,2.00
2024-02-24T04:49:39.945Z,2.00
2024-02-24T04:52:26.024Z,2.00
2024-02-24T04:55:12.369Z,1.90
2024-02-24T04:57:58.333Z,1.80
2024-02-24T05:00:44.384Z,1.80
2024-02-24T05:03:30.409Z,1.70
2024-02-24T05:06:16.595Z,1.70
2024-02-24T05:09:02.896Z,1.60
2024-02-24T05:11:49.310Z,1.60
2024-02-24T05:14:38.810Z,1.60
2024-02-24T05:17:25.104Z,1.60
2024-02-24T05:20:13.330Z,1.60
2024-02-24T05:22:59.611Z,1.50
2024-02-24T05:25:48.535Z,1.50
2024-02-24T05:28:35.642Z,1.50
2024-02-24T05:31:21.906Z,1.40
2024-02-24T05:34:08.924Z,1.40
2024-02-24T05:36:55.866Z,1.60
2024-02-24T05:39:42.073Z,1.70
2024-02-24T05:42:28.991Z,1.80
2024-02-24T05:45:15.114Z,1.70
2024-02-24T05:48:04.097Z,1.50
2024-02-24T05:50:50.745Z,1.40
2024-02-24T05:53:38.169Z,1.30
2024-02-24T05:56:24.614Z,1.20
2024-02-24T05:59:10.610Z,1.20
2024-02-24T06:01:56.747Z,1.20
2024-02-24T06:04:43.634Z,1.30
2024-02-24T06:07:30.080Z,1.30
2024-02-24T06:10:16.252Z,1.40
2024-02-24T06:13:02.541Z,1.50
2024-02-24T06:15:48.787Z,1.60
2024-02-24T06:18:35.269Z,1.60
2024-02-24T06:21:21.695Z,1.50
2024-02-24T06:24:07.933Z,1.40
2024-02-24T06:26:54.334Z,1.40
2024-02-24T06:29:40.345Z,1.50
2024-02-24T06:32:26.886Z,1.60
2024-02-24T06:35:14.104Z,1.60
2024-02-24T06:38:00.413Z,1.60
2024-02-24T06:40:47.045Z,1.50
2024-02-24T06:43:33.244Z,1.50
2024-02-24T06:46:19.303Z,1.50
2024-02-24T06:49:06.228Z,1.50
2024-02-24T06:51:52.623Z,1.50
2024-02-24T06:54:42.638Z,1.50
2024-02-24T06:57:28.994Z,1.60
2024-02-24T07:00:15.309Z,1.70
2024-02-24T07:03:01.700Z,1.70
2024-02-24T07:05:48.286Z,1.90
2024-02-24T07:08:34.456Z,2.00
2024-02-24T07:11:21.313Z,2.10
2024-02-24T07:14:07.968Z,2.20
2024-02-24T07:16:54.313Z,2.40
2024-02-24T07:19:41.027Z,2.50
2024-02-24T07:22:27.057Z,2.80
2024-02-24T07:25:13.102Z,3.40
2024-02-24T07:27:59.272Z,4.10
2024-02-24T07:30:45.568Z,4.90
2024-02-24T07:33:31.815Z,5.70
2024-02-24T07:36:18.144Z,6.40
2024-02-24T07:39:05.996Z,7.10
2024-02-24T07:41:52.596Z,7.70
2024-02-24T07:44:39.304Z,7.90
2024-02-24T07:47:26.033Z,8.10
2024-02-24T07:50:12.535Z,7.80
2024-02-24T07:52:58.643Z,7.70
2024-02-24T07:55:44.856Z,7.50
2024-02-24T07:58:30.857Z,7.10
2024-02-24T08:01:17.394Z,6.80
2024-02-24T08:04:03.620Z,6.90
2024-02-24T08:06:49.938Z,7.40
2024-02-24T08:09:36.220Z,8.10
2024-02-24T08:12:22.674Z,8.50
2024-02-24T08:15:09.211Z,8.20
2024-02-24T08:17:55.712Z,7.60
2024-02-24T08:20:42.248Z,7.50
2024-02-24T08:23:28.304Z,7.60
2024-02-24T08:26:14.610Z,7.60
2024-02-24T08:29:00.863Z,7.80
2024-02-24T08:31:46.947Z,7.90
2024-02-24T08:34:33.474Z,7.80
2024-02-24T08:37:19.408Z,7.70
2024-02-24T08:40:06.159Z,7.70
2024-02-24T08:42:52.920Z,8.00
2024-02-24T08:45:39.104Z,8.40
2024-02-24T08:48:26.601Z,8.80
2024-02-24T08:51:12.705Z,9.00
2024-02-24T08:53:58.761Z,9.00
2024-02-24T08:56:46.902Z,9.10
2024-02-24T08:59:33.086Z,9.20
2024-02-24T09:02:20.464Z,9.30
2024-02-24T09:05:07.289Z,9.70
2024-02-24T09:07:53.868Z,10.10
2024-02-24T09:10:40.210Z,10.70
2024-02-24T09:13:27.067Z,11.00
2024-02-24T09:16:16.840Z,11.20
2024-02-24T09:19:03.298Z,11.20
2024-02-24T09:21:49.669Z,11.60
2024-02-24T09:24:36.205Z,12.50
2024-02-24T09:27:23.808Z,13.70
2024-02-24T09:30:14.290Z,14.30
2024-02-24T09:33:01.706Z,14.50
2024-02-24T09:35:48.279Z,14.60
2024-02-24T09:38:34.386Z,14.90
2024-02-24T09:41:20.439Z,13.90
2024-02-24T09:44:06.552Z,13.50
2024-02-24T09:46:53.049Z,12.90
2024-02-24T09:49:40.630Z,13.20
2024-02-24T09:52:26.904Z,12.90
2024-02-24T09:55:13.143Z,12.60
2024-02-24T09:58:01.882Z,12.80
2024-02-24T10:00:54.408Z,13.00
2024-02-24T10:03:42.432Z,12.80
2024-02-24T10:06:28.951Z,13.20
2024-02-24T10:09:15.682Z,13.70
2024-02-24T10:12:02.851Z,13.90
2024-02-24T10:14:49.035Z,13.40
2024-02-24T10:17:35.200Z,13.30
2024-02-24T10:20:21.199Z,13.50
2024-02-24T10:23:07.248Z,14.30
2024-02-24T10:25:58.541Z,15.20
2024-02-24T10:28:45.621Z,15.90
2024-02-24T10:31:32.733Z,16.10
2024-02-24T10:34:19.150Z,16.00
2024-02-24T10:37:05.465Z,15.70
2024-02-24T10:39:53.135Z,15.10
2024-02-24T10:42:39.983Z,15.00
2024-02-24T10:45:28.099Z,14.90
2024-02-24T10:48:14.467Z,14.60
2024-02-24T10:51:01.395Z,14.30
2024-02-24T10:53:54.280Z,14.20
2024-02-24T10:56:41.075Z,13.90
2024-02-24T10:59:29.538Z,13.60
2024-02-24T11:02:16.007Z,13.60
2024-02-24T11:05:03.057Z,13.80
2024-02-24T11:07:49.295Z,13.60
2024-02-24T11:10:35.672Z,13.40
2024-02-24T11:13:23.144Z,13.20
2024-02-24T11:16:11.390Z,13.20
2024-02-24T11:18:57.962Z,13.60
2024-02-24T11:22:02.488Z,14.30
2024-02-24T11:25:01.825Z,14.70
2024-02-24T11:27:56.820Z,14.50
2024-02-24T11:30:42.767Z,14.10
2024-02-24T11:33:31.012Z,13.80
2024-02-24T11:36:17.956Z,13.20
2024-02-24T11:39:04.742Z,13.10
2024-02-24T11:41:51.852Z,13.20
2024-02-24T11:44:42.904Z,13.70
2024-02-24T11:47:29.562Z,13.80
2024-02-24T11:50:16.243Z,13.40
2024-02-24T11:53:03.346Z,13.20
2024-02-24T11:55:50.049Z,13.10
2024-02-24T11:58:36.218Z,13.40
2024-02-24T12:01:22.331Z,14.10
2024-02-24T12:04:08.598Z,14.40
2024-02-24T12:06:55.415Z,13.90
2024-02-24T12:09:43.390Z,13.30
2024-02-24T12:12:29.936Z,12.60
2024-02-24T12:15:17.753Z,11.90
2024-02-24T12:18:08.879Z,11.60
2024-02-24T12:20:55.502Z,11.70
2024-02-24T12:23:42.546Z,12.50
2024-02-24T12:26:29.030Z,13.90
2024-02-24T12:29:16.434Z,14.40
2024-02-24T12:32:06.707Z,14.20
2024-02-24T12:35:03.250Z,13.90
2024-02-24T12:37:52.231Z,13.60
2024-02-24T12:40:41.589Z,13.90
2024-02-24T12:43:27.733Z,14.40
2024-02-24T12:46:13.787Z,14.50
2024-02-24T12:49:00.181Z,14.80
2024-02-24T12:51:53.028Z,14.70
2024-02-24T12:54:39.198Z,14.40
2024-02-24T12:57:25.481Z,14.40
2024-02-24T13:00:13.880Z,14.20
2024-02-24T13:03:00.788Z,14.00
2024-02-24T13:05:47.516Z,13.40
2024-02-24T13:08:34.183Z,13.00
2024-02-24T13:11:20.956Z,12.50
2024-02-24T13:14:06.876Z,12.30
2024-02-24T13:16:52.972Z,12.20
2024-02-24T13:19:39.168Z,12.40
2024-02-24T13:22:25.228Z,12.70
2024-02-24T13:25:11.503Z,12.80
2024-02-24T13:27:57.984Z,12.90
2024-02-24T13:30:44.299Z,13.10
2024-02-24T13:33:30.515Z,13.30
2024-02-24T13:36:17.585Z,13.30
2024-02-24T13:39:03.789Z,13.30
2024-02-24T13:41:52.563Z,13.30
2024-02-24T13:44:39.404Z,13.20
2024-02-24T13:47:25.737Z,13.20
2024-02-24T13:50:12.444Z,13.00
2024-02-24T13:52:59.571Z,12.80
2024-02-24T13:55:46.360Z,12.60
2024-02-24T13:58:32.992Z,12.50
2024-02-24T14:01:19.552Z,12.40
2024-02-24T14:04:05.948Z,12.40
2024-02-24T14:06:52.524Z,12.40
2024-02-24T14:09:39.855Z,12.70
2024-02-24T14:12:25.878Z,13.20
2024-02-24T14:15:12.471Z,13.90
2024-02-24T14:17:59.900Z,14.60
2024-02-24T14:20:46.381Z,15.00
2024-02-24T14:23:33.440Z,15.10
2024-02-24T14:26:20.441Z,14.90
2024-02-24T14:29:06.829Z,14.80
2024-02-24T14:31:53.345Z,15.20
2024-02-24T14:34:39.490Z,15.90
2024-02-24T14:37:25.986Z,16.10
2024-02-24T14:40:12.484Z,15.80
2024-02-24T14:42:59.323Z,15.10
2024-02-24T14:45:45.296Z,14.40
2024-02-24T14:48:31.470Z,14.10
2024-02-24T14:51:20.498Z,13.90
2024-02-24T14:54:07.889Z,13.90
2024-02-24T14:56:55.249Z,13.80
2024-02-24T14:59:43.994Z,13.70
2024-02-24T15:02:40.664Z,13.50
2024-02-24T15:05:35.187Z,13.20
2024-02-24T15:08:21.386Z,13.10
2024-02-24T15:11:08.034Z,12.90
2024-02-24T15:13:54.116Z,12.80
2024-02-24T15:16:47.703Z,12.70
2024-02-24T15:19:37.103Z,12.60
2024-02-24T15:22:23.420Z,12.60
2024-02-24T15:25:10.245Z,12.40
2024-02-24T15:27:56.688Z,12.20
2024-02-24T15:30:43.293Z,12.00
2024-02-24T15:33:30.111Z,11.80
2024-02-24T15:36:16.000Z,11.80
2024-02-24T15:39:02.098Z,11.60
2024-02-24T15:41:48.732Z,11.50
2024-02-24T15:44:34.901Z,11.30
2024-02-24T15:47:20.938Z,11.20
2024-02-24T15:50:07.721Z,11.20
2024-02-24T15:52:54.092Z,11.00
2024-02-24T15:55:40.197Z,10.80
2024-02-24T15:58:26.317Z,10.80
2024-02-24T16:01:13.088Z,10.70
2024-02-24T16:03:59.231Z,10.60
2024-02-24T16:06:45.350Z,10.50
2024-02-24T16:09:33.584Z,10.40
2024-02-24T16:12:19.996Z,10.40
2024-02-24T16:15:06.735Z,10.20
2024-02-24T16:17:53.080Z,10.20
2024-02-24T16:20:40.994Z,10.10
2024-02-24T16:23:27.275Z,10.00
2024-02-24T16:26:16.545Z,9.90
2024-02-24T16:29:03.201Z,9.80
2024-02-24T16:31:49.436Z,9.80
2024-02-24T16:34:36.580Z,9.70
2024-02-24T16:37:24.728Z,9.60
2024-02-24T16:40:11.790Z,9.50
2024-02-24T16:42:57.987Z,9.40
2024-02-24T16:45:44.808Z,9.20
2024-02-24T16:48:31.636Z,9.10
2024-02-24T16:51:17.767Z,9.00
2024-02-24T16:54:04.029Z,8.90
2024-02-24T16:56:50.599Z,8.80
2024-02-24T16:59:37.439Z,8.80
2024-02-24T17:02:23.842Z,8.70
2024-02-24T17:05:13.347Z,8.70
2024-02-24T17:07:59.542Z,8.60
2024-02-24T17:10:45.865Z,8.50
2024-02-24T17:13:31.940Z,8.40
2024-02-24T17:16:17.903Z,8.40
2024-02-24T17:19:04.359Z,8.40
2024-02-24T17:21:50.887Z,8.40
2024-02-24T17:24:37.997Z,8.40
2024-02-24T17:27:26.156Z,8.30
2024-02-24T17:30:13.989Z,8.30
2024-02-24T17:33:00.506Z,8.20
2024-02-24T17:35:46.709Z,8.20
2024-02-24T17:38:33.316Z,8.20
2024-02-24T17:41:20.258Z,8.00
2024-02-24T17:44:06.176Z,8.00
2024-02-24T17:46:52.504Z,7.90
2024-02-24T17:49:38.899Z,7.90
2024-02-24T17:52:25.148Z,7.90
2024-02-24T17:55:12.574Z,7.90
2024-02-24T17:57:59.195Z,7.90
2024-02-24T18:00:45.732Z,7.90
2024-02-24T18:03:32.175Z,7.90
2024-02-24T18:06:18.866Z,8.00
2024-02-24T18:09:04.974Z,8.00
2024-02-24T18:11:51.376Z,7.90
2024-02-24T18:14:38.846Z,7.80
2024-02-24T18:17:25.194Z,7.70
2024-02-24T18:20:12.594Z,7.60
2024-02-24T18:22:58.786Z,7.50
2024-02-24T18:25:44.784Z,7.50
2024-02-24T18:28:30.987Z,7.50
2024-02-24T18:31:17.962Z,7.40
2024-02-24T18:34:04.315Z,7.30
2024-02-24T18:36:50.893Z,7.20
2024-02-24T18:39:36.955Z,7.20
2024-02-24T18:42:23.768Z,7.20
2024-02-24T18:45:12.128Z,7.20
2024-02-24T18:47:58.252Z,7.20
2024-02-24T18:50:44.871Z,7.20
2024-02-24T18:53:34.542Z,7.10
2024-02-24T18:56:20.604Z,7.10
2024-02-24T18:59:07.129Z,7.10
2024-02-24T19:01:53.968Z,7.00
2024-02-24T19:04:40.729Z,6.90
2024-02-24T19:07:26.875Z,6.90
2024-02-24T19:10:13.889Z,6.90
2024-02-24T19:13:00.170Z,6.90
2024-02-24T19:15:46.171Z,6.90
2024-02-24T19:18:32.800Z,6.90
2024-02-24T19:21:19.315Z,6.90
2024-02-24T19:24:12.707Z,6.90
2024-02-24T19:26:59.225Z,6.90
2024-02-24T19:29:46.069Z,6.90
2024-02-24T19:32:32.320Z,7.00
2024-02-24T19:35:18.932Z,7.00
2024-02-24T19:38:05.467Z,6.90
2024-02-24T19:40:51.874Z,6.90
2024-02-24T19:43:37.938Z,6.80
2024-02-24T19:46:23.943Z,6.70
2024-02-24T19:49:10.420Z,6.70
2024-02-24T19:51:56.516Z,6.60
2024-02-24T19:54:49.337Z,6.70
2024-02-24T19:57:36.176Z,6.70
2024-02-24T20:00:22.581Z,6.60
2024-02-24T20:03:09.860Z,6.60
2024-02-24T20:05:56.321Z,6.60
2024-02-24T20:08:42.579Z,6.60
2024-02-24T20:11:28.734Z,6.60
2024-02-24T20:14:15.661Z,6.60
2024-02-24T20:17:01.779Z,6.60
2024-02-24T20:19:48.191Z,6.70
2024-02-24T20:22:34.789Z,6.70
2024-02-24T20:25:20.954Z,6.80
2024-02-24T20:28:07.330Z,6.70
2024-02-24T20:30:54.087Z,6.70
2024-02-24T20:33:42.438Z,6.80
2024-02-24T20:36:31.463Z,6.80
2024-02-24T20:39:17.656Z,6.90
2024-02-24T20:42:04.617Z,6.90
2024-02-24T20:44:50.617Z,6.90
2024-02-24T20:47:36.891Z,6.90
2024-02-24T20:50:25.581Z,6.90
2024-02-24T20:53:11.444Z,6.90
2024-02-24T20:55:57.551Z,6.90
2024-02-24T20:58:44.022Z,6.90
2024-02-24T21:01:30.688Z,6.90
2024-02-24T21:04:17.108Z,7.00
2024-02-24T21:07:04.416Z,7.00
2024-02-24T21:09:50.844Z,7.00
2024-02-24T21:12:36.933Z,7.00
2024-02-24T21:15:23.297Z,7.00
2024-02-24T21:18:09.716Z,7.10
2024-02-24T21:20:56.216Z,7.20
2024-02-24T21:23:45.425Z,7.20
2024-02-24T21:26:31.373Z,7.20
2024-02-24T21:29:17.328Z,7.30
2024-02-24T21:32:03.444Z,7.30
2024-02-24T21:34:49.866Z,7.30
2024-02-24T21:37:35.936Z,7.20
2024-02-24T21:40:21.986Z,7.20
2024-02-24T21:43:08.166Z,7.10
2024-02-24T21:45:54.312Z,7.10
2024-02-24T21:48:40.661Z,7.10
2024-02-24T21:51:27.157Z,7.20
2024-02-24T21:54:15.771Z,7.20
2024-02-24T21:57:02.365Z,7.30
2024-02-24T21:59:49.422Z,7.30
2024-02-24T22:02:35.384Z,7.20
2024-02-24T22:05:21.621Z,7.30
2024-02-24T22:08:08.185Z,7.30
2024-02-24T22:10:54.292Z,7.40
2024-02-24T22:13:40.345Z,7.50
2024-02-24T22:16:27.381Z,7.50
2024-02-24T22:19:14.064Z,7.50
2024-02-24T22:22:00.654Z,7.50
2024-02-24T22:24:48.797Z,7.50
2024-02-24T22:27:35.604Z,7.50
2024-02-24T22:30:21.682Z,7.50
2024-02-24T22:33:07.874Z,7.20
2024-02-24T22:35:55.153Z,7.20
2024-02-24T22:38:41.058Z,7.20
2024-02-24T22:41:27.091Z,7.30
2024-02-24T22:44:14.291Z,7.30
2024-02-24T22:47:00.928Z,7.50
2024-02-24T22:49:47.133Z,7.50
2024-02-24T22:52:33.776Z,7.50
2024-02-24T22:55:20.952Z,7.50
2024-02-24T22:58:06.850Z,7.40
2024-02-24T23:00:53.234Z,7.30
2024-02-24T23:03:39.313Z,7.20
2024-02-24T23:06:25.526Z,7.20
2024-02-24T23:09:11.906Z,7.10
2024-02-24T23:11:58.183Z,7.00
2024-02-24T23:14:44.474Z,7.10
2024-02-24T23:17:31.095Z,7.00
2024-02-24T23:20:17.548Z,7.00
2024-02-24T23:23:04.308Z,7.00
2024-02-24T23:25:50.597Z,7.00
2024-02-24T23:28:36.637Z,7.10
2024-02-24T23:31:23.219Z,7.10
2024-02-24T23:34:09.535Z,7.10
2024-02-24T23:36:56.036Z,7.10
2024-02-24T23:39:42.148Z,7.00
2024-02-24T23:42:28.208Z,7.00
2024-02-24T23:45:14.988Z,6.90
2024-02-24T23:48:01.485Z,7.00
2024-02-24T23:50:47.901Z,6.90
2024-02-24T23:53:34.458Z,6.90
2024-02-24T23:56:24.939Z,6.90
2024-02-24T23:59:11.321Z,7.00
